Time;durP1;ratioP1;P1;durP2;ratioP2;P2;SDS_P1;SDS_P2;PMS_P1;PMS_P2;Temp;Humidity;BMP_temperature;BMP_pressure;BME280_temperature;BME280_humidity;BME280_pressure;Samples;Min_cycle;Max_cycle;Signal;HPM_P1;HPM_P2
2022/01/20 00:03:54;;;;;;;8.02;1.50;;;4.30;99.90;;;;;;4881061;29;20097;-73
2022/01/20 00:28:09;;;;;;;4.13;0.80;;;4.60;99.90;;;;;;4860072;29;20061;-73
2022/01/20 00:30:45;;;;;;;4.38;1.02;;;4.60;99.90;;;;;;4867521;29;20512;-73
2022/01/20 00:38:24;;;;;;;3.28;1.23;;;4.50;99.90;;;;;;4896309;29;20287;-73
2022/01/20 00:40:51;;;;;;;6.78;1.25;;;4.50;99.90;;;;;;4897134;29;20112;-73
2022/01/20 00:43:17;;;;;;;6.90;2.03;;;4.40;99.90;;;;;;4879776;29;20413;-73
2022/01/20 00:45:42;;;;;;;;;;;4.40;99.90;;;;;;4897101;29;20056;-73
2022/01/20 00:48:08;;;;;;;3.70;1.00;;;4.30;99.90;;;;;;4879936;29;19920;-74
2022/01/20 00:50:38;;;;;;;;;;;4.20;99.90;;;;;;4879896;29;20409;-74
2022/01/20 00:53:03;;;;;;;3.45;1.20;;;4.20;99.90;;;;;;4880527;29;20421;-73
2022/01/20 00:55:29;;;;;;;;;;;4.10;99.90;;;;;;4880934;29;20045;-73
2022/01/20 00:57:55;;;;;;;5.22;1.40;;;4.10;99.90;;;;;;4879288;29;19924;-73
2022/01/20 01:00:23;;;;;;;;;;;4.10;99.90;;;;;;4897569;29;20060;-73
2022/01/20 01:02:49;;;;;;;8.45;1.40;;;4.20;99.90;;;;;;4880505;29;19923;-73
2022/01/20 01:05:14;;;;;;;;;;;4.20;99.90;;;;;;4880350;29;20082;-73
2022/01/20 01:07:48;;;;;;;7.53;1.67;;;4.20;99.90;;;;;;4880351;29;19923;-73
2022/01/20 01:10:31;;;;;;;12.57;1.80;;;4.20;99.90;;;;;;4879535;29;20602;-73
2022/01/20 01:15:28;;;;;;;;;;;4.30;99.90;;;;;;4880598;29;20052;-73
2022/01/20 01:23:36;;;;;;;8.25;1.70;;;4.60;99.90;;;;;;4880007;29;20397;-73
2022/01/20 01:26:04;;;;;;;3.40;0.70;;;5.90;99.90;;;;;;4879260;29;20083;-73
2022/01/20 01:28:31;;;;;;;3.80;0.80;;;4.50;99.90;;;;;;4879990;29;20075;-73
2022/01/20 01:33:33;;;;;;;4.15;1.20;;;4.50;99.90;;;;;;4879629;29;20132;-74
2022/01/20 01:36:02;;;;;;;3.67;1.08;;;4.50;99.90;;;;;;4880178;29;20083;-73
2022/01/20 01:38:47;;;;;;;10.57;1.23;;;4.50;99.90;;;;;;4859945;29;20053;-73
2022/01/20 01:41:16;;;;;;;8.63;1.10;;;4.40;99.90;;;;;;4861027;29;20049;-74
2022/01/20 01:43:49;;;;;;;5.75;1.50;;;4.40;99.90;;;;;;4861377;29;20064;-73
2022/01/20 01:46:15;;;;;;;8.48;2.38;;;4.40;99.90;;;;;;4878205;29;20052;-73
2022/01/20 01:48:43;;;;;;;8.60;1.58;;;4.40;99.90;;;;;;4894951;29;20504;-72
2022/01/20 01:51:09;;;;;;;10.23;1.95;;;4.50;99.90;;;;;;4879900;29;20092;-73
2022/01/20 01:53:37;;;;;;;7.50;2.15;;;4.50;99.90;;;;;;4883458;29;20083;-73
2022/01/20 01:56:04;;;;;;;8.82;1.38;;;4.60;99.90;;;;;;4882868;29;20057;-73
2022/01/20 01:58:30;;;;;;;7.78;1.50;;;4.60;99.90;;;;;;4899390;29;20401;-73
2022/01/20 02:00:56;;;;;;;;;;;4.70;99.90;;;;;;4899988;29;20099;-73
2022/01/20 02:03:24;;;;;;;12.55;2.50;;;4.60;99.90;;;;;;4883243;29;19923;-73
2022/01/20 02:06:28;;;;;;;14.23;1.60;;;4.60;99.90;;;;;;4899829;29;20374;-73
2022/01/20 02:09:21;;;;;;;10.15;1.60;;;4.60;99.90;;;;;;4882060;29;20056;-73
2022/01/20 02:19:58;;;;;;;8.60;1.90;;;4.60;99.90;;;;;;4882906;29;20052;-73
2022/01/20 02:22:24;;;;;;;8.35;1.75;;;4.40;99.90;;;;;;4881516;29;20044;-72
2022/01/20 02:24:50;;;;;;;13.63;2.22;;;4.40;99.90;;;;;;4899691;29;20044;-73
2022/01/20 02:27:15;;;;;;;;;;;4.40;99.90;;;;;;4899950;29;20108;-74
2022/01/20 02:29:45;;;;;;;13.80;2.38;;;4.40;99.90;;;;;;4898974;29;20364;-74
2022/01/20 02:32:11;;;;;;;14.55;2.90;;;4.40;99.90;;;;;;4882411;29;20048;-74
2022/01/20 02:34:37;;;;;;;12.77;2.75;;;4.50;99.90;;;;;;4899593;29;20044;-74
2022/01/20 02:37:10;;;;;;;17.70;3.33;;;4.60;99.90;;;;;;4898166;29;20127;-74
2022/01/20 02:47:15;;;;;;;11.70;2.20;;;4.70;99.90;;;;;;4881624;29;20386;-73
2022/01/20 02:49:40;;;;;;;;;;;4.70;99.90;;;;;;4881386;29;20055;-73
2022/01/20 02:52:06;;;;;;;12.00;2.55;;;4.60;99.90;;;;;;4881654;29;20300;-73
2022/01/20 02:54:35;;;;;;;8.80;2.45;;;4.50;99.90;;;;;;4882569;29;20494;-73
2022/01/20 02:57:01;;;;;;;;;;;4.50;99.90;;;;;;4882580;29;20108;-72
2022/01/20 02:59:27;;;;;;;13.10;2.70;;;4.40;99.90;;;;;;4897863;29;19923;-72
2022/01/20 03:01:53;;;;;;;13.05;2.92;;;4.50;99.90;;;;;;4881666;29;20041;-73
2022/01/20 03:04:22;;;;;;;;;;;4.50;99.90;;;;;;4881611;29;20052;-73
2022/01/20 03:06:47;;;;;;;5.93;1.63;;;4.40;99.90;;;;;;4899061;29;19919;-73
2022/01/20 03:09:13;;;;;;;;;;;4.40;99.90;;;;;;4881386;29;20140;-73
2022/01/20 03:11:38;;;;;;;11.98;2.30;;;4.30;99.90;;;;;;4898182;29;20303;-74
2022/01/20 03:14:04;;;;;;;;;;;4.20;99.90;;;;;;4882699;29;20051;-74
2022/01/20 03:16:30;;;;;;;12.25;2.42;;;4.20;99.90;;;;;;4898638;29;20281;-73
2022/01/20 03:18:55;;;;;;;;;;;4.20;99.90;;;;;;4881129;29;20056;-74
2022/01/20 03:21:24;;;;;;;16.55;2.70;;;4.30;99.90;;;;;;4881592;29;19951;-73
2022/01/20 03:23:50;;;;;;;10.70;2.67;;;4.30;99.90;;;;;;4881813;29;20066;-73
2022/01/20 03:26:16;;;;;;;;;;;4.30;99.90;;;;;;4880988;29;20045;-74
2022/01/20 03:28:41;;;;;;;14.27;3.17;;;4.20;99.90;;;;;;4898540;29;20118;-74
2022/01/20 03:31:19;;;;;;;;;;;4.30;99.90;;;;;;4880917;29;20393;-73
2022/01/20 03:33:44;;;;;;;12.43;2.67;;;4.30;99.90;;;;;;4897475;29;20383;-74
2022/01/20 03:36:10;;;;;;;;;;;4.30;99.90;;;;;;4881689;29;20052;-73
2022/01/20 03:38:38;;;;;;;7.40;2.88;;;4.20;99.90;;;;;;4881975;29;19931;-73
2022/01/20 03:41:04;;;;;;;7.95;2.10;;;4.10;99.90;;;;;;4881412;29;20060;-74
2022/01/20 03:43:29;;;;;;;;;;;4.20;99.90;;;;;;4881196;29;20060;-73
2022/01/20 03:45:57;;;;;;;11.68;3.53;;;4.10;99.90;;;;;;4880649;29;19946;-74
2022/01/20 03:48:26;;;;;;;19.40;3.30;;;4.10;99.90;;;;;;4880483;29;20076;-73
2022/01/20 03:51:01;;;;;;;7.85;2.08;;;4.10;99.90;;;;;;4898399;29;20051;-73
2022/01/20 03:53:32;;;;;;;13.30;2.67;;;4.10;99.90;;;;;;4897366;29;20080;-73
2022/01/20 03:56:00;;;;;;;11.23;2.00;;;4.10;99.90;;;;;;4881482;29;20433;-74
2022/01/20 03:58:26;;;;;;;;;;;4.00;99.90;;;;;;4881552;29;20140;-74
2022/01/20 04:00:52;;;;;;;8.75;2.20;;;4.00;99.90;;;;;;4897509;29;19919;-74
2022/01/20 04:03:18;;;;;;;;;;;3.80;99.90;;;;;;4897607;29;20405;-73
2022/01/20 04:08:21;;;;;;;13.13;2.17;;;3.70;99.90;;;;;;4880569;29;20087;-74
2022/01/20 04:10:46;;;;;;;;;;;3.70;99.90;;;;;;4881703;29;20084;-74
2022/01/20 04:13:14;;;;;;;14.45;2.20;;;3.80;99.90;;;;;;4880128;29;19944;-74
2022/01/20 04:15:42;;;;;;;10.07;3.90;;;3.80;99.90;;;;;;4896525;29;20424;-74
2022/01/20 04:18:20;;;;;;;9.95;2.20;;;3.80;99.90;;;;;;4880709;29;20048;-74
2022/01/20 04:20:45;;;;;;;7.97;1.73;;;3.80;99.90;;;;;;4880332;29;20067;-74
2022/01/20 04:23:11;;;;;;;;;;;3.90;99.90;;;;;;4880307;29;20049;-74
2022/01/20 04:25:36;;;;;;;9.18;2.05;;;3.90;99.90;;;;;;4897687;29;20022;-74
2022/01/20 04:28:02;;;;;;;;;;;3.80;99.90;;;;;;4881619;29;20064;-74
2022/01/20 04:30:29;;;;;;;9.77;1.90;;;3.70;99.90;;;;;;4879780;29;20383;-74
2022/01/20 04:32:55;;;;;;;6.85;1.52;;;3.70;99.90;;;;;;4880840;29;20061;-74
2022/01/20 04:35:20;;;;;;;;;;;3.70;99.90;;;;;;4896956;29;20409;-74
2022/01/20 04:37:48;;;;;;;10.73;1.90;;;3.60;99.90;;;;;;4897014;29;19927;-74
2022/01/20 04:40:15;;;;;;;9.73;2.47;;;3.50;99.90;;;;;;4897028;29;20493;-74
2022/01/20 04:42:43;;;;;;;13.07;2.33;;;3.40;99.90;;;;;;4879508;29;20060;-74
2022/01/20 04:45:12;;;;;;;10.63;2.28;;;3.30;99.90;;;;;;4880327;29;20056;-74
2022/01/20 04:58:19;;;;;;;6.55;1.95;;;3.10;99.90;;;;;;4879968;29;20077;-74
2022/01/20 05:00:50;;;;;;;;;;;3.30;99.90;;;;;;4881116;29;20096;-74
2022/01/20 05:03:16;;;;;;;9.05;1.92;;;3.40;99.90;;;;;;4880058;29;20434;-74
2022/01/20 05:05:42;;;;;;;;;;;3.30;99.90;;;;;;4897431;29;20064;-73
2022/01/20 05:08:17;;;;;;;12.18;1.92;;;3.20;99.90;;;;;;4879944;29;19920;-74
2022/01/20 05:10:42;;;;;;;5.85;1.50;;;3.20;99.90;;;;;;4896716;29;20143;-74
2022/01/20 05:13:22;;;;;;;;;;;3.20;99.90;;;;;;4897360;29;20078;-74
2022/01/20 05:15:47;;;;;;;10.00;2.38;;;3.20;99.90;;;;;;4897258;29;19919;-75
2022/01/20 05:18:13;;;;;;;;;;;3.20;99.90;;;;;;4895941;29;20055;-74
2022/01/20 05:20:38;;;;;;;13.32;2.05;;;3.20;99.90;;;;;;4879477;29;20431;-74
2022/01/20 05:23:07;;;;;;;;;;;3.20;99.90;;;;;;4880606;29;20052;-74
2022/01/20 05:25:32;;;;;;;11.00;1.90;;;3.10;99.90;;;;;;4880916;29;20280;-73
2022/01/20 05:28:04;;;;;;;;;;;3.10;99.90;;;;;;4900913;29;20068;-74
2022/01/20 05:30:29;;;;;;;8.98;1.80;;;3.00;99.90;;;;;;4883802;29;19927;-74
2022/01/20 05:32:55;;;;;;;;;;;3.00;99.90;;;;;;4883428;29;20044;-73
2022/01/20 05:35:23;;;;;;;11.60;2.28;;;2.90;99.90;;;;;;4883389;29;19955;-74
2022/01/20 05:37:49;;;;;;;14.32;2.17;;;2.80;99.90;;;;;;4882293;29;20048;-74
2022/01/20 05:40:14;;;;;;;;;;;2.80;99.90;;;;;;4882439;29;20053;-74
2022/01/20 05:42:40;;;;;;;15.85;2.25;;;2.90;99.90;;;;;;4883052;29;19930;-74
2022/01/20 05:45:06;;;;;;;;;;;3.00;99.90;;;;;;4900939;29;20400;-74
2022/01/20 05:47:34;;;;;;;13.35;1.95;;;3.00;99.90;;;;;;4883192;29;19927;-74
2022/01/20 05:49:59;;;;;;;5.85;1.77;;;3.00;99.90;;;;;;4883633;29;20072;-74
2022/01/20 05:52:25;;;;;;;;;;;2.90;99.90;;;;;;4899276;29;20542;-73
2022/01/20 05:54:50;;;;;;;6.75;1.77;;;2.80;99.90;;;;;;4881431;29;19952;-74
2022/01/20 05:57:16;;;;;;;;;;;2.90;99.90;;;;;;4882431;29;20587;-74
2022/01/20 05:59:42;;;;;;;7.38;1.58;;;2.90;99.90;;;;;;4882977;29;19931;-74
2022/01/20 06:02:27;;;;;;;;;;;2.90;99.90;;;;;;4896756;29;20037;-74
2022/01/20 06:04:53;;;;;;;15.88;4.20;;;3.00;99.90;;;;;;4882510;29;19923;-73
2022/01/20 06:07:20;;;;;;;;;;;3.10;99.90;;;;;;4882447;29;20048;-73
2022/01/20 06:09:46;;;;;;;7.70;2.10;;;3.10;99.90;;;;;;4899101;29;19985;-72
2022/01/20 06:12:11;;;;;;;;;;;3.20;99.90;;;;;;4882659;29;20333;-77
2022/01/20 06:14:37;;;;;;;8.55;2.08;;;3.30;99.90;;;;;;4882138;29;19930;-72
2022/01/20 06:17:02;;;;;;;;;;;3.30;99.90;;;;;;4899612;29;20060;-76
2022/01/20 06:19:28;;;;;;;9.60;2.42;;;3.40;99.90;;;;;;4882187;29;19927;-72
2022/01/20 06:21:53;;;;;;;;;;;3.40;99.90;;;;;;4882411;29;20051;-76
2022/01/20 06:24:19;;;;;;;14.55;2.67;;;3.40;99.90;;;;;;4899222;29;20062;-77
2022/01/20 06:26:44;;;;;;;;;;;3.30;99.90;;;;;;4883583;29;20041;-79
2022/01/20 06:29:10;;;;;;;9.65;2.13;;;3.30;99.90;;;;;;4881773;29;20435;-75
2022/01/20 06:31:36;;;;;;;;;;;3.30;99.90;;;;;;4883253;29;20049;-75
2022/01/20 06:34:01;;;;;;;13.05;3.28;;;3.30;99.90;;;;;;4882840;29;19924;-75
2022/01/20 06:36:27;;;;;;;;;;;3.30;99.90;;;;;;4882378;29;20389;-75
2022/01/20 06:38:55;;;;;;;12.00;2.20;;;3.30;99.90;;;;;;4881715;29;20311;-74
2022/01/20 06:41:27;;;;;;;9.27;1.98;;;3.30;99.90;;;;;;4899340;29;20131;-79
2022/01/20 06:43:52;;;;;;;8.05;2.38;;;3.30;99.90;;;;;;4881922;29;20056;-78
2022/01/20 06:46:27;;;;;;;;;;;3.20;99.90;;;;;;4882660;29;20060;-76
2022/01/20 06:48:52;;;;;;;13.15;2.30;;;3.20;99.90;;;;;;4899419;29;19927;-76
2022/01/20 06:51:18;;;;;;;;;;;3.10;99.90;;;;;;4881052;29;20451;-77
2022/01/20 06:53:46;;;;;;;14.07;2.88;;;3.00;99.90;;;;;;4880757;29;19956;-79
2022/01/20 06:56:12;;;;;;;11.05;2.50;;;2.90;99.90;;;;;;4881429;29;20048;-77
2022/01/20 06:58:37;;;;;;;;;;;2.90;99.90;;;;;;4899277;29;20056;-74
2022/01/20 07:01:03;;;;;;;9.90;2.33;;;2.80;99.90;;;;;;4899129;29;20325;-76
2022/01/20 07:03:29;;;;;;;16.15;3.75;;;2.80;99.90;;;;;;4881617;29;20053;-75
2022/01/20 07:06:07;;;;;;;;;;;2.70;99.90;;;;;;4899259;29;20400;-73
2022/01/20 07:08:32;;;;;;;12.38;2.38;;;2.70;99.90;;;;;;4896280;29;19927;-74
2022/01/20 07:11:01;;;;;;;;;;;2.80;99.90;;;;;;4893489;29;20096;-77
2022/01/20 07:13:26;;;;;;;12.80;2.15;;;2.90;99.90;;;;;;4881087;29;19923;-79
2022/01/20 07:15:52;;;;;;;;;;;3.00;99.90;;;;;;4881267;29;20115;-78
2022/01/20 07:18:17;;;;;;;14.65;2.25;;;3.10;99.90;;;;;;4879860;29;19970;-77
2022/01/20 07:20:43;;;;;;;;;;;3.20;99.90;;;;;;4882054;29;20115;-78
2022/01/20 07:23:08;;;;;;;8.85;2.95;;;3.30;99.90;;;;;;4879256;29;19930;-79
2022/01/20 07:25:34;;;;;;;;;;;3.30;99.90;;;;;;4879090;29;20183;-80
2022/01/20 07:28:03;;;;;;;16.50;2.75;;;3.40;99.90;;;;;;4879841;29;20380;-80
2022/01/20 07:30:31;;;;;;;15.27;2.83;;;3.50;99.90;;;;;;4880317;29;20111;-80
2022/01/20 07:33:03;;;;;;;12.00;2.40;;;3.60;99.90;;;;;;4880343;29;20086;-80
2022/01/20 07:35:29;;;;;;;10.98;2.63;;;3.60;99.90;;;;;;4897783;29;20049;-80
2022/01/20 07:37:54;;;;;;;;;;;3.50;99.90;;;;;;4881437;29;20051;-80
2022/01/20 07:40:20;;;;;;;10.52;2.30;;;3.50;99.90;;;;;;4897328;29;19923;-81
2022/01/20 07:42:46;;;;;;;;;;;3.50;99.90;;;;;;4881377;29;20507;-79
2022/01/20 07:45:11;;;;;;;11.35;2.72;;;3.50;99.90;;;;;;4881304;29;19923;-80
2022/01/20 07:47:37;;;;;;;;;;;3.50;99.90;;;;;;4897803;29;20484;-79
2022/01/20 07:50:03;;;;;;;14.45;3.03;;;3.60;99.90;;;;;;4881590;29;19927;-81
2022/01/20 07:52:29;;;;;;;14.05;3.83;;;3.60;99.90;;;;;;4880706;29;20132;-80
2022/01/20 07:54:54;;;;;;;;;;;3.50;99.90;;;;;;4898319;29;20131;-80
2022/01/20 07:57:20;;;;;;;7.90;2.10;;;3.50;99.90;;;;;;4880998;29;19930;-80
2022/01/20 07:59:45;;;;;;;;;;;3.40;99.90;;;;;;4898032;29;20390;-81
2022/01/20 08:02:11;;;;;;;9.90;2.38;;;3.40;99.90;;;;;;4880673;29;19931;-81
2022/01/20 08:04:36;;;;;;;;;;;3.40;99.90;;;;;;4881354;29;20051;-80
2022/01/20 08:07:02;;;;;;;11.30;2.05;;;3.40;99.90;;;;;;4880660;29;19943;-80
2022/01/20 08:09:28;;;;;;;;;;;3.40;99.90;;;;;;4881459;29;20093;-79
2022/01/20 08:11:53;;;;;;;14.43;1.98;;;3.40;99.90;;;;;;4880770;29;19924;-82
2022/01/20 08:14:19;;;;;;;;;;;3.50;99.90;;;;;;4880611;29;20052;-82
2022/01/20 08:16:44;;;;;;;8.98;2.10;;;3.40;99.90;;;;;;4880982;29;19923;-80
2022/01/20 08:19:10;;;;;;;;;;;3.50;99.90;;;;;;4880849;29;20100;-79
2022/01/20 08:21:36;;;;;;;20.45;4.45;;;3.60;99.90;;;;;;4880219;29;19923;-79
2022/01/20 08:24:02;;;;;;;;;;;3.70;99.90;;;;;;4881675;29;20079;-81
2022/01/20 08:26:27;;;;;;;13.30;4.10;;;3.80;99.90;;;;;;4896975;29;19931;-78
2022/01/20 08:28:53;;;;;;;;;;;3.80;99.90;;;;;;4897190;29;20049;-77
2022/01/20 08:31:18;;;;;;;12.35;2.60;;;3.80;99.90;;;;;;4897178;29;19931;-78
2022/01/20 08:33:44;;;;;;;;;;;3.90;99.90;;;;;;4880655;29;20049;-77
2022/01/20 08:36:10;;;;;;;9.77;1.92;;;3.90;99.90;;;;;;4896117;29;19930;-77
2022/01/20 08:38:35;;;;;;;;;;;4.00;99.90;;;;;;4897813;29;20044;-77
2022/01/20 08:41:01;;;;;;;7.40;2.15;;;4.00;99.90;;;;;;4879733;29;19924;-78
2022/01/20 08:43:26;;;;;;;;;;;4.10;99.90;;;;;;4879906;29;20057;-77
2022/01/20 08:45:52;;;;;;;9.45;2.60;;;4.00;99.90;;;;;;4880035;29;19951;-76
2022/01/20 08:48:17;;;;;;;;;;;4.10;99.90;;;;;;4897691;29;20045;-79
2022/01/20 08:50:44;;;;;;;12.10;2.63;;;3.90;99.90;;;;;;4880254;29;20363;-78
2022/01/20 08:53:10;;;;;;;10.18;2.50;;;3.80;99.90;;;;;;4879834;29;20509;-78
2022/01/20 08:55:37;;;;;;;10.65;1.90;;;3.80;99.90;;;;;;4880555;29;20040;-78
2022/01/20 08:58:03;;;;;;;10.05;1.98;;;3.70;99.90;;;;;;4879828;29;20131;-78
2022/01/20 09:00:32;;;;;;;10.45;1.73;;;3.80;99.90;;;;;;4896853;29;20404;-81
2022/01/20 09:02:58;;;;;;;6.45;1.40;;;3.90;99.90;;;;;;4883226;29;20096;-78
2022/01/20 09:05:24;;;;;;;6.00;1.40;;;3.80;99.90;;;;;;4883932;29;20044;-77
2022/01/20 09:07:50;;;;;;;;;;;3.80;99.90;;;;;;4901636;29;20062;-77
2022/01/20 09:10:20;;;;;;;9.70;1.75;;;3.70;99.90;;;;;;4882533;29;19923;-82
2022/01/20 09:15:29;;;;;;;8.60;2.05;;;3.70;99.90;;;;;;4883936;29;20397;-82
2022/01/20 09:18:01;;;;;;;12.43;2.30;;;3.70;99.90;;;;;;4883740;29;20076;-80
2022/01/20 09:20:27;;;;;;;12.45;2.85;;;3.70;99.90;;;;;;4900612;29;20132;-79
2022/01/20 09:22:55;;;;;;;11.63;3.42;;;3.80;99.90;;;;;;4884149;29;20052;-79
2022/01/20 09:25:21;;;;;;;16.58;3.85;;;3.90;99.90;;;;;;4883404;29;20063;-82
2022/01/20 09:27:51;;;;;;;10.18;1.90;;;4.40;99.90;;;;;;4884456;29;20052;-91
2022/01/20 09:30:19;;;;;;;8.90;2.42;;;5.00;99.90;;;;;;4884171;29;20408;-82
2022/01/20 09:32:57;;;;;;;7.63;2.40;;;5.10;99.90;;;;;;4883061;29;20058;-82
2022/01/20 09:35:25;;;;;;;10.23;2.85;;;5.00;99.90;;;;;;4883845;29;20083;-81
2022/01/20 09:37:51;;;;;;;16.45;2.65;;;4.90;99.90;;;;;;4883506;29;20053;-82
2022/01/20 09:40:17;;;;;;;;;;;4.90;99.90;;;;;;4883427;29;20514;-82
2022/01/20 09:42:42;;;;;;;8.48;2.53;;;5.30;99.90;;;;;;4883882;29;19927;-82
2022/01/20 09:45:08;;;;;;;;;;;5.90;99.90;;;;;;4883008;29;20445;-81
2022/01/20 09:47:35;;;;;;;11.25;2.30;;;6.20;99.90;;;;;;4883742;29;19923;-82
2022/01/20 09:50:00;;;;;;;12.05;2.90;;;6.80;99.90;;;;;;4883494;29;20500;-80
2022/01/20 09:52:27;;;;;;;;;;;7.30;99.90;;;;;;4882544;29;20052;-83
2022/01/20 09:54:52;;;;;;;8.40;2.03;;;7.30;99.90;;;;;;4883490;29;19923;-84
2022/01/20 09:57:18;;;;;;;;;;;7.30;99.90;;;;;;4898819;29;20112;-83
2022/01/20 09:59:44;;;;;;;11.05;3.58;;;7.00;99.90;;;;;;4882749;29;19927;-82
2022/01/20 10:02:17;;;;;;;10.95;2.90;;;6.90;99.90;;;;;;4882203;29;20079;-81
2022/01/20 10:04:43;;;;;;;10.15;2.90;;;7.00;99.90;;;;;;4882536;29;20053;-80
2022/01/20 10:07:10;;;;;;;;;;;6.90;99.90;;;;;;4882293;29;20049;-79
2022/01/20 10:09:42;;;;;;;11.05;3.03;;;7.60;99.90;;;;;;4876310;23;19950;-84
2022/01/20 10:12:10;;;;;;;10.85;2.55;;;8.70;99.90;;;;;;4844074;29;20057;-82
2022/01/20 10:14:50;;;;;;;11.90;3.05;;;9.50;99.90;;;;;;4845841;29;20053;-79
2022/01/20 10:17:24;;;;;;;12.00;3.08;;;10.40;99.90;;;;;;4853147;23;20049;-79
2022/01/20 10:19:54;;;;;;;12.93;2.97;;;11.30;99.90;;;;;;4862513;29;20056;-82
2022/01/20 10:22:23;;;;;;;14.80;2.78;;;11.50;99.90;;;;;;4860865;29;20101;-77
2022/01/20 10:25:04;;;;;;;8.45;2.70;;;10.40;99.90;;;;;;4880942;29;20045;-80
2022/01/20 10:27:32;;;;;;;10.88;2.67;;;9.30;99.90;;;;;;4861993;29;20125;-77
2022/01/20 10:30:09;;;;;;;14.05;4.68;;;8.40;99.90;;;;;;4863725;29;20041;-81
2022/01/20 10:32:43;;;;;;;14.00;3.47;;;7.80;99.90;;;;;;4863749;29;20061;-82
2022/01/20 10:35:11;;;;;;;9.35;3.63;;;8.30;99.90;;;;;;4863533;29;20112;-81
2022/01/20 10:37:52;;;;;;;16.70;3.42;;;9.40;99.90;;;;;;4879258;29;20416;-81
2022/01/20 10:40:18;;;;;;;10.57;2.40;;;10.50;99.90;;;;;;4881274;29;20049;-82
2022/01/20 10:42:44;;;;;;;;;;;10.40;99.90;;;;;;4881802;29;20091;-81
2022/01/20 10:45:24;;;;;;;8.93;2.20;;;9.50;99.90;;;;;;4882321;29;19931;-82
2022/01/20 10:47:55;;;;;;;8.93;2.03;;;8.50;99.90;;;;;;4881071;29;20049;-78
2022/01/20 10:50:27;;;;;;;8.35;2.03;;;7.60;99.90;;;;;;4894987;29;20135;-79
2022/01/20 10:52:53;;;;;;;9.02;2.47;;;6.90;99.90;;;;;;4882036;29;20052;-82
2022/01/20 10:55:31;;;;;;;9.48;2.63;;;6.40;99.90;;;;;;4881955;29;20056;-81
2022/01/20 10:58:15;;;;;;;10.02;2.70;;;6.10;99.90;;;;;;4882573;29;20401;-76
2022/01/20 11:00:47;;;;;;;13.38;2.80;;;6.50;99.90;;;;;;4879569;29;20075;-80
2022/01/20 11:03:14;;;;;;;9.43;2.25;;;7.90;99.90;;;;;;4880637;29;20497;-77
2022/01/20 11:05:40;;;;;;;9.40;2.30;;;8.60;99.90;;;;;;4880848;29;20072;-81
2022/01/20 11:08:07;;;;;;;13.85;1.92;;;8.40;99.90;;;;;;4881420;29;20580;-85
2022/01/20 11:10:32;;;;;;;9.23;1.52;;;7.90;99.90;;;;;;4881632;29;20137;-80
2022/01/20 11:12:58;;;;;;;;;;;7.00;99.90;;;;;;4899434;29;20125;-79
2022/01/20 11:15:26;;;;;;;10.85;1.50;;;6.40;99.90;;;;;;4897801;29;20072;-78
2022/01/20 11:17:56;;;;;;;9.90;2.25;;;6.00;99.90;;;;;;4897620;29;20056;-80
2022/01/20 11:20:25;;;;;;;12.52;2.10;;;5.60;99.90;;;;;;4882162;29;20041;-73
2022/01/20 11:23:04;;;;;;;7.80;1.95;;;5.40;99.90;;;;;;4898248;29;20047;-87
2022/01/20 11:25:35;;;;;;;8.25;2.00;;;5.60;99.90;;;;;;4881148;29;20114;-78
2022/01/20 11:28:08;;;;;;;6.97;1.77;;;5.80;99.90;;;;;;4881492;29;20565;-78
2022/01/20 11:30:38;;;;;;;8.32;2.53;;;6.10;99.90;;;;;;4881587;29;20052;-79
2022/01/20 11:33:10;;;;;;;12.63;2.60;;;7.20;99.90;;;;;;4880609;29;20040;-80
2022/01/20 11:35:36;;;;;;;7.15;2.60;;;8.80;99.90;;;;;;4881325;29;20044;-80
2022/01/20 11:38:05;;;;;;;;;;;9.60;99.90;;;;;;4881595;29;20132;-79
2022/01/20 11:40:35;;;;;;;11.15;2.45;;;9.50;99.90;;;;;;4881087;29;19923;-79
2022/01/20 11:43:13;;;;;;;9.05;2.75;;;8.80;99.90;;;;;;4881266;29;20053;-78
2022/01/20 11:45:41;;;;;;;9.82;2.50;;;8.50;99.90;;;;;;4881115;29;20064;-83
2022/01/20 11:48:20;;;;;;;9.10;2.10;;;8.10;99.90;;;;;;4880395;29;20044;-78
2022/01/20 11:50:48;;;;;;;10.30;2.30;;;7.40;99.90;;;;;;4881313;29;20060;-77
2022/01/20 11:53:18;;;;;;;8.65;2.47;;;6.80;99.90;;;;;;4880116;29;20045;-78
2022/01/20 11:55:53;;;;;;;9.38;2.40;;;6.30;99.90;;;;;;4898445;29;20437;-82
2022/01/20 11:58:22;;;;;;;11.85;2.97;;;6.00;99.90;;;;;;4880180;29;20052;-77
2022/01/20 12:01:08;;;;;;;8.57;2.33;;;6.30;99.90;;;;;;4897435;29;20458;-81
2022/01/20 12:03:37;;;;;;;9.57;2.88;;;6.70;99.90;;;;;;4881237;29;20541;-81
2022/01/20 12:06:10;;;;;;;11.95;2.80;;;7.90;99.90;;;;;;4880532;29;20049;-79
2022/01/20 12:08:36;;;;;;;11.48;2.65;;;6.90;99.90;;;;;;4880894;29;20131;-80
2022/01/20 12:11:08;;;;;;;;;;;6.70;99.90;;;;;;4881444;29;20057;-78
2022/01/20 12:13:48;;;;;;;5.78;1.95;;;6.70;99.90;;;;;;4880257;29;20398;-79
2022/01/20 12:16:23;;;;;;;12.85;2.30;;;6.50;99.90;;;;;;4880986;29;20060;-77
2022/01/20 12:18:55;;;;;;;10.15;2.28;;;5.90;99.90;;;;;;4880690;29;20524;-78
2022/01/20 12:21:21;;;;;;;9.88;2.15;;;5.50;99.90;;;;;;4896947;29;20055;-78
2022/01/20 12:23:48;;;;;;;5.63;2.00;;;5.00;99.90;;;;;;4880758;29;20075;-78
2022/01/20 12:26:17;;;;;;;8.20;1.92;;;4.80;99.90;;;;;;4880702;29;20480;-77
2022/01/20 12:28:45;;;;;;;9.38;2.53;;;4.50;99.90;;;;;;4880136;29;20136;-78
2022/01/20 12:31:17;;;;;;;7.78;2.03;;;4.40;99.90;;;;;;4880205;29;20041;-78
2022/01/20 12:33:46;;;;;;;8.43;2.22;;;4.50;99.90;;;;;;4880494;29;20448;-78
2022/01/20 12:36:17;;;;;;;6.97;2.38;;;4.70;99.90;;;;;;4895706;29;20047;-78
2022/01/20 12:38:51;;;;;;;13.68;2.35;;;5.20;99.90;;;;;;4880728;29;20083;-79
2022/01/20 12:41:22;;;;;;;9.50;2.35;;;6.80;99.90;;;;;;4879407;29;20584;-79
2022/01/20 12:44:09;;;;;;;9.82;2.85;;;8.30;99.90;;;;;;4880795;29;20049;-79
2022/01/20 12:46:37;;;;;;;9.57;2.80;;;9.50;99.90;;;;;;4880701;29;20055;-79
2022/01/20 12:49:12;;;;;;;9.55;2.70;;;9.60;99.90;;;;;;4880484;29;20104;-80
2022/01/20 12:51:45;;;;;;;10.35;2.55;;;8.90;99.90;;;;;;4880791;29;20045;-77
2022/01/20 12:54:13;;;;;;;12.02;2.38;;;8.70;99.90;;;;;;4879188;29;20057;-77
2022/01/20 12:56:43;;;;;;;10.95;2.42;;;8.40;99.90;;;;;;4879265;29;20053;-85
2022/01/20 12:59:21;;;;;;;7.65;2.03;;;7.90;99.90;;;;;;4897652;29;20048;-82
2022/01/20 13:01:48;;;;;;;8.30;1.95;;;5.80;99.90;;;;;;4880115;29;20052;-77
2022/01/20 13:04:22;;;;;;;9.13;2.63;;;6.80;99.90;;;;;;4895877;29;20124;-80
2022/01/20 13:07:02;;;;;;;8.60;2.20;;;7.10;99.90;;;;;;4864309;29;20048;-80
2022/01/20 13:09:52;;;;;;;7.28;1.83;;;8.30;99.90;;;;;;4894827;29;20044;-79
2022/01/20 13:12:19;;;;;;;5.60;1.83;;;9.50;99.90;;;;;;4880467;29;20576;-82
2022/01/20 13:17:26;;;;;;;10.18;2.45;;;10.50;99.90;;;;;;4156470;27;20538;-79
2022/01/20 13:19:54;;;;;;;9.85;2.60;;;10.50;99.90;;;;;;4880052;29;20061;-79
2022/01/20 13:22:28;;;;;;;10.07;2.90;;;9.90;99.90;;;;;;4880573;29;20425;-86
2022/01/20 13:25:03;;;;;;;7.22;3.05;;;8.40;99.90;;;;;;4880043;29;20497;-83
2022/01/20 13:27:28;;;;;;;5.80;2.00;;;7.90;99.90;;;;;;4879713;29;20049;-79
2022/01/20 13:29:54;;;;;;;;;;;7.40;99.90;;;;;;4890152;29;20045;-85
2022/01/20 13:32:19;;;;;;;7.60;2.17;;;6.60;99.90;;;;;;4895335;29;20328;-83
2022/01/20 13:34:55;;;;;;;;;;;6.70;99.90;;;;;;4891402;29;20448;-80
2022/01/20 13:37:21;;;;;;;6.80;2.92;;;7.20;99.90;;;;;;4910731;29;19924;-79
2022/01/20 13:39:48;;;;;;;;;;;7.70;99.90;;;;;;4882260;29;20055;-79
2022/01/20 13:42:45;;;;;;;8.82;2.58;;;7.90;99.90;;;;;;4896189;29;19978;-90
2022/01/20 13:45:14;;;;;;;12.23;3.50;;;7.90;99.90;;;;;;4878921;29;20048;-83
2022/01/20 13:47:59;;;;;;;10.63;2.78;;;7.90;99.90;;;;;;4894297;29;20649;-82
2022/01/20 13:50:31;;;;;;;11.13;2.78;;;7.80;99.90;;;;;;4879635;29;20049;-82
2022/01/20 13:52:58;;;;;;;11.48;2.08;;;7.70;99.90;;;;;;4876119;29;20060;-82
2022/01/20 13:55:28;;;;;;;8.00;1.85;;;7.30;99.90;;;;;;4872597;29;20064;-82
2022/01/20 13:57:55;;;;;;;9.48;2.25;;;7.10;99.90;;;;;;4873191;29;20048;-82
2022/01/20 14:00:30;;;;;;;9.88;2.00;;;6.70;99.90;;;;;;4877663;29;20465;-81
2022/01/20 14:02:56;;;;;;;6.97;2.05;;;6.60;99.90;;;;;;4884220;29;20072;-82
2022/01/20 14:05:29;;;;;;;9.10;2.10;;;6.60;99.90;;;;;;4872165;29;20477;-82
2022/01/20 14:07:59;;;;;;;4.90;1.63;;;6.40;99.90;;;;;;4873171;29;20489;-78
2022/01/20 14:10:25;;;;;;;8.68;1.80;;;6.50;99.90;;;;;;4882025;29;20380;-80
2022/01/20 14:12:51;;;;;;;;;;;6.20;99.90;;;;;;4882117;29;20479;-80
2022/01/20 14:15:19;;;;;;;10.50;3.42;;;6.00;99.90;;;;;;4882281;29;19928;-80
2022/01/20 14:17:51;;;;;;;8.48;2.30;;;5.80;99.90;;;;;;4869586;29;20132;-81
2022/01/20 14:20:17;;;;;;;10.85;2.22;;;5.70;99.90;;;;;;4865132;29;20049;-84
2022/01/20 14:22:44;;;;;;;13.07;3.60;;;5.70;99.90;;;;;;4863659;29;20109;-88
2022/01/20 14:25:12;;;;;;;12.00;2.35;;;5.70;99.90;;;;;;4867341;29;20044;-86
2022/01/20 14:27:40;;;;;;;15.55;3.00;;;5.60;99.90;;;;;;4881311;29;20045;-85
2022/01/20 14:30:07;;;;;;;9.80;2.20;;;5.50;99.90;;;;;;4882096;29;20041;-91
2022/01/20 14:32:33;;;;;;;9.15;2.53;;;5.50;99.90;;;;;;4866879;29;20136;-83
2022/01/20 14:34:59;;;;;;;13.98;3.40;;;5.50;99.90;;;;;;4880020;29;20128;-82
2022/01/20 14:37:28;;;;;;;;;;;5.40;99.90;;;;;;4863108;29;20136;-83